Time;durP1;ratioP1;P1;durP2;ratioP2;P2;SDS_P1;SDS_P2;PMS_P1;PMS_P2;Temp;Humidity;BMP_temperature;BMP_pressure;BME280_temperature;BME280_humidity;BME280_pressure;Samples;Min_cycle;Max_cycle;Signal;HPM_P1;HPM_P2
2021/12/22 00:01:15;;;;;;;61.67;26.70;;;;;;;-3.58;98.79;102530.47;6217556;23;20043;-64
2021/12/22 00:03:45;;;;;;;62.03;27.10;;;;;;;-3.53;98.86;102546.16;6217516;23;20005;-66
2021/12/22 00:06:10;;;;;;;60.00;27.33;;;;;;;-3.59;99.09;102540.59;6217910;23;20020;-64
2021/12/22 00:08:36;;;;;;;61.53;27.55;;;;;;;-3.59;98.76;102548.28;6217830;23;20004;-65
2021/12/22 00:11:01;;;;;;;61.95;27.10;;;;;;;-3.58;98.86;102552.63;6217533;23;20279;-66
2021/12/22 00:13:26;;;;;;;71.03;27.15;;;;;;;-3.61;99.12;102545.59;6217357;23;20011;-67
2021/12/22 00:15:52;;;;;;;61.58;28.20;;;;;;;-3.57;99.06;102551.84;6217636;23;20008;-65
2021/12/22 00:18:17;;;;;;;63.08;26.15;;;;;;;-3.63;99.37;102544.59;6218016;23;20306;-64
2021/12/22 00:20:42;;;;;;;65.45;26.65;;;;;;;-3.62;98.52;102548.94;6217449;23;20087;-65
2021/12/22 00:23:07;;;;;;;63.50;27.65;;;;;;;-3.67;99.11;102549.41;6217752;23;20011;-64
2021/12/22 00:25:33;;;;;;;63.60;27.67;;;;;;;-3.71;98.65;102555.09;6217515;23;20394;-65
2021/12/22 00:27:59;;;;;;;70.20;27.58;;;;;;;-3.79;99.10;102551.06;6217160;23;20008;-65
2021/12/22 00:30:25;;;;;;;72.28;29.30;;;;;;;-3.86;99.60;102549.78;6217627;23;20074;-63
2021/12/22 00:32:53;;;;;;;67.15;28.10;;;;;;;-3.85;100.00;102551.56;6217454;23;20004;-64
2021/12/22 00:35:21;;;;;;;65.20;27.42;;;;;;;-3.83;99.53;102551.66;6217879;23;20009;-65
2021/12/22 00:37:46;;;;;;;64.40;28.15;;;;;;;-3.86;99.43;102543.00;6217409;23;20298;-63
2021/12/22 00:40:12;;;;;;;63.58;28.33;;;;;;;-3.83;99.21;102544.00;6217311;23;20001;-65
2021/12/22 00:42:37;;;;;;;72.80;29.33;;;;;;;-3.83;99.51;102541.44;6216899;23;20005;-66
2021/12/22 00:45:03;;;;;;;65.65;29.20;;;;;;;-3.85;100.00;102536.22;6217246;23;20027;-66
2021/12/22 00:47:30;;;;;;;70.40;29.95;;;;;;;-3.83;99.94;102552.56;6217418;23;20421;-64
2021/12/22 00:49:57;;;;;;;61.85;27.75;;;;;;;-3.82;99.92;102549.22;6217400;23;20008;-65
2021/12/22 00:52:22;;;;;;;60.20;27.10;;;;;;;-3.83;99.71;102542.31;6217571;23;20034;-66
2021/12/22 00:54:48;;;;;;;64.05;28.23;;;;;;;-3.88;99.97;102538.53;6217469;23;20070;-66
2021/12/22 00:57:15;;;;;;;63.70;27.85;;;;;;;-3.83;99.26;102544.00;6216821;23;20009;-63
2021/12/22 00:59:41;;;;;;;64.35;28.23;;;;;;;-3.87;99.18;102536.09;6217963;23;20035;-66
2021/12/22 01:02:08;;;;;;;62.65;27.83;;;;;;;-3.92;99.22;102537.44;6219189;23;20009;-65
2021/12/22 01:04:34;;;;;;;65.05;27.35;;;;;;;-3.88;99.20;102535.97;6219169;23;20020;-64
2021/12/22 01:06:59;;;;;;;64.82;26.95;;;;;;;-3.88;99.31;102547.09;6219093;23;20004;-65
2021/12/22 01:09:24;;;;;;;62.70;28.25;;;;;;;-3.87;99.48;102554.00;6219242;23;20353;-65
2021/12/22 01:11:50;;;;;;;63.42;26.90;;;;;;;-4.01;99.35;102529.09;6219015;23;20029;-63
2021/12/22 01:14:16;;;;;;;67.13;28.65;;;;;;;-3.92;98.21;102549.31;6219238;23;20032;-65
2021/12/22 01:16:48;;;;;;;65.25;28.30;;;;;;;-3.96;98.53;102550.75;6219054;23;20016;-64
2021/12/22 01:19:20;;;;;;;60.97;26.83;;;;;;;-3.93;98.80;102545.88;6219335;23;20000;-62
2021/12/22 01:21:56;;;;;;;63.05;27.13;;;;;;;-3.96;99.34;102543.09;6219002;23;20054;-63
2021/12/22 01:24:29;;;;;;;66.35;26.38;;;;;;;-3.92;99.43;102534.88;6218916;23;20015;-63
2021/12/22 01:27:03;;;;;;;67.22;27.40;;;;;;;-3.92;99.11;102536.53;6219014;23;20004;-63
2021/12/22 01:29:29;;;;;;;66.25;27.23;;;;;;;-3.96;99.22;102530.31;6219315;23;20310;-64
2021/12/22 01:31:57;;;;;;;65.80;27.17;;;;;;;-4.00;99.49;102525.78;6219073;23;20005;-64
2021/12/22 01:34:26;;;;;;;62.38;27.58;;;;;;;-3.94;98.87;102532.97;6218991;23;20015;-64
2021/12/22 01:36:52;;;;;;;66.47;27.55;;;;;;;-3.95;98.83;102532.09;6218761;23;20005;-63
2021/12/22 01:39:17;;;;;;;59.25;27.42;;;;;;;-3.97;99.20;102533.63;6218875;23;20077;-65
2021/12/22 01:41:43;;;;;;;62.80;27.40;;;;;;;-4.00;98.67;102530.00;6219179;23;20032;-62
2021/12/22 01:44:10;;;;;;;60.40;25.58;;;;;;;-4.00;99.51;102533.44;6218685;23;20413;-64
2021/12/22 01:49:10;;;;;;;62.80;27.08;;;;;;;-3.96;100.00;102532.88;6229137;23;20008;-65
2021/12/22 01:51:38;;;;;;;61.65;26.55;;;;;;;-3.89;100.00;102527.41;6218758;23;20079;-65
2021/12/22 01:54:18;;;;;;;65.68;27.45;;;;;;;-3.83;100.00;102533.75;6218713;23;20341;-65
2021/12/22 01:56:44;;;;;;;67.63;29.77;;;;;;;-3.84;100.00;102525.19;6218840;23;20009;-66
2021/12/22 01:59:10;;;;;;;74.57;31.10;;;;;;;-3.77;100.00;102519.72;6218731;23;20361;-64
2021/12/22 02:01:37;;;;;;;64.50;28.35;;;;;;;-3.75;100.00;102515.59;6219022;23;20004;-65
2021/12/22 02:04:04;;;;;;;66.93;29.08;;;;;;;-3.72;100.00;102531.19;6218183;23;20024;-63
2021/12/22 02:06:30;;;;;;;66.68;27.38;;;;;;;-3.72;100.00;102528.63;6218328;23;20271;-65
2021/12/22 02:08:58;;;;;;;70.28;28.35;;;;;;;-3.75;100.00;102537.75;6218874;23;20090;-65
2021/12/22 02:11:23;;;;;;;66.55;28.40;;;;;;;-3.78;100.00;102537.50;6218182;23;20413;-64
2021/12/22 02:13:56;;;;;;;63.28;27.33;;;;;;;-3.81;100.00;102545.88;6218361;23;20084;-63
2021/12/22 02:16:27;;;;;;;61.20;26.25;;;;;;;-3.84;100.00;102553.34;6218229;23;20418;-64
2021/12/22 02:18:54;;;;;;;66.68;28.05;;;;;;;-3.86;100.00;102547.22;6218435;23;20055;-64
2021/12/22 02:21:21;;;;;;;58.63;26.35;;;;;;;-3.91;99.91;102543.44;6218699;23;20008;-64
2021/12/22 02:23:46;;;;;;;63.75;27.08;;;;;;;-3.91;100.00;102549.44;6219029;23;20009;-66
2021/12/22 02:26:17;;;;;;;61.10;27.23;;;;;;;-3.94;100.00;102538.97;6218467;23;20016;-63
2021/12/22 02:28:46;;;;;;;62.55;28.10;;;;;;;-3.90;100.00;102540.97;6218083;23;20009;-65
2021/12/22 02:31:16;;;;;;;68.15;27.73;;;;;;;-3.86;100.00;102548.09;6217917;23;20001;-65
2021/12/22 02:33:43;;;;;;;69.38;28.50;;;;;;;-3.84;100.00;102543.09;6218144;23;20402;-65
2021/12/22 02:38:47;;;;;;;58.90;25.48;;;;;;;-3.93;100.00;102533.09;6228137;23;20310;-65
2021/12/22 02:41:16;;;;;;;63.67;26.50;;;;;;;-3.89;100.00;102540.22;6218300;23;20000;-65
2021/12/22 02:43:53;;;;;;;59.53;25.95;;;;;;;-3.86;100.00;102547.22;6217878;23;20461;-63
2021/12/22 02:46:24;;;;;;;59.65;25.95;;;;;;;-3.92;100.00;102536.53;6218721;23;20012;-63
2021/12/22 02:48:50;;;;;;;59.23;26.23;;;;;;;-3.92;100.00;102539.97;6217947;23;20287;-66
2021/12/22 02:51:18;;;;;;;55.90;25.40;;;;;;;-3.96;100.00;102537.97;6218292;23;20240;-63
2021/12/22 02:54:11;;;;;;;58.45;25.52;;;;;;;-4.02;100.00;102532.44;6217141;23;20311;-64
2021/12/22 02:59:37;;;;;;;57.53;24.27;;;;;;;-4.01;100.00;102523.09;6218561;23;20092;-65
2021/12/22 03:04:42;;;;;;;67.33;27.27;;;;;;;-4.00;100.00;102525.78;6228124;23;20402;-64
2021/12/22 03:07:13;;;;;;;52.58;25.52;;;;;;;-4.01;100.00;102525.66;6218172;23;20004;-66
2021/12/22 03:09:38;;;;;;;57.88;25.48;;;;;;;-4.05;100.00;102523.66;6217988;23;20417;-63
2021/12/22 03:12:06;;;;;;;56.70;25.05;;;;;;;-4.03;100.00;102527.22;6217685;23;20008;-63
2021/12/22 03:14:32;;;;;;;58.05;25.08;;;;;;;-4.01;100.00;102541.00;6218042;23;20083;-66
2021/12/22 03:16:58;;;;;;;61.00;25.35;;;;;;;-4.08;100.00;102537.09;6217837;23;20036;-64
2021/12/22 03:19:26;;;;;;;54.20;24.50;;;;;;;-4.10;100.00;102551.44;6216929;23;20005;-63
2021/12/22 03:21:59;;;;;;;50.67;24.92;;;;;;;-4.10;100.00;102566.78;6217849;23;20075;-64
2021/12/22 03:24:25;;;;;;;50.42;22.88;;;;;;;-4.15;100.00;102560.41;6217942;23;20005;-66
2021/12/22 03:26:50;;;;;;;53.53;24.42;;;;;;;-4.18;100.00;102562.78;6218006;23;20008;-64
2021/12/22 03:29:18;;;;;;;53.83;23.83;;;;;;;-4.18;100.00;102562.78;6217474;23;20005;-65
2021/12/22 03:31:45;;;;;;;58.47;25.90;;;;;;;-4.18;100.00;102559.34;6217583;23;20012;-63
2021/12/22 03:34:12;;;;;;;58.08;24.52;;;;;;;-4.22;100.00;102556.56;6217489;23;20023;-64
2021/12/22 03:36:37;;;;;;;58.50;24.67;;;;;;;-4.21;100.00;102562.56;6217831;23;20306;-64
2021/12/22 03:39:05;;;;;;;54.63;24.40;;;;;;;-4.26;100.00;102561.31;6217923;23;20004;-63
2021/12/22 03:41:31;;;;;;;52.10;23.27;;;;;;;-4.31;100.00;102554.97;6217203;23;20302;-63
2021/12/22 03:43:56;;;;;;;51.60;23.35;;;;;;;-4.32;100.00;102561.75;6217712;23;20011;-63
2021/12/22 03:46:22;;;;;;;56.03;23.42;;;;;;;-4.31;100.00;102560.06;6217031;23;20016;-65
2021/12/22 03:48:47;;;;;;;53.17;23.60;;;;;;;-4.31;100.00;102554.97;6217484;23;20091;-65
2021/12/22 03:51:12;;;;;;;51.03;22.88;;;;;;;-4.37;100.00;102541.75;6217814;23;20076;-64
2021/12/22 03:53:38;;;;;;;52.80;24.35;;;;;;;-4.35;100.00;102540.22;6217972;23;20004;-66
2021/12/22 03:56:03;;;;;;;53.90;23.42;;;;;;;-4.35;100.00;102535.09;6217803;23;20055;-66
2021/12/22 03:58:29;;;;;;;49.13;22.25;;;;;;;-4.34;100.00;102539.44;6217406;23;20474;-64
2021/12/22 04:00:56;;;;;;;48.80;22.58;;;;;;;-4.38;100.00;102538.31;6217305;23;20059;-62
2021/12/22 04:03:24;;;;;;;50.50;23.08;;;;;;;-4.37;100.00;102549.44;6217855;23;20001;-64
2021/12/22 04:05:50;;;;;;;53.28;23.08;;;;;;;-4.40;100.00;102544.09;6217625;23;20306;-63
2021/12/22 04:08:18;;;;;;;51.88;22.23;;;;;;;-4.39;100.00;102546.75;6217448;23;20005;-65
2021/12/22 04:10:45;;;;;;;54.45;23.52;;;;;;;-4.44;100.00;102536.97;6217609;23;20012;-64
2021/12/22 04:13:11;;;;;;;46.42;22.38;;;;;;;-4.44;100.00;102531.84;6217463;23;20091;-65
2021/12/22 04:15:36;;;;;;;44.25;22.45;;;;;;;-4.43;100.00;102538.75;6217482;23;20043;-66
2021/12/22 04:18:02;;;;;;;49.83;22.13;;;;;;;-4.45;100.00;102543.72;6217540;23;20005;-63
2021/12/22 04:20:28;;;;;;;50.08;22.63;;;;;;;-4.45;100.00;102537.72;6217431;23;20005;-64
2021/12/22 04:22:54;;;;;;;52.30;23.00;;;;;;;-4.48;100.00;102535.84;6217813;23;20104;-63
2021/12/22 04:25:21;;;;;;;46.53;22.33;;;;;;;-4.49;100.00;102534.06;6217477;23;20009;-64
2021/12/22 04:27:48;;;;;;;49.30;22.55;;;;;;;-4.46;100.00;102529.19;6217499;23;20060;-67
2021/12/22 04:30:13;;;;;;;50.35;22.33;;;;;;;-4.51;100.00;102522.88;6217452;23;20351;-65
2021/12/22 04:32:39;;;;;;;48.10;21.77;;;;;;;-4.51;100.00;102517.75;6217524;23;20008;-63
2021/12/22 04:35:04;;;;;;;47.35;22.35;;;;;;;-4.49;100.00;102517.84;6217900;23;20031;-64
2021/12/22 04:37:30;;;;;;;56.03;22.92;;;;;;;-4.49;100.00;102515.28;6219658;23;20036;-65
2021/12/22 04:39:55;;;;;;;49.13;21.58;;;;;;;-4.43;100.00;102519.19;6219732;23;20368;-66
2021/12/22 04:42:20;;;;;;;45.78;22.52;;;;;;;-4.48;100.00;102515.41;6219254;23;20369;-66
2021/12/22 04:44:46;;;;;;;45.70;22.17;;;;;;;-4.45;100.00;102520.75;6219005;23;20017;-65
2021/12/22 04:47:11;;;;;;;54.03;23.08;;;;;;;-4.40;100.00;102521.09;6219501;23;20039;-66
2021/12/22 04:49:39;;;;;;;46.47;22.25;;;;;;;-4.40;100.00;102513.41;6219467;23;20012;-65
2021/12/22 04:52:07;;;;;;;44.35;21.15;;;;;;;-4.39;100.00;102513.53;6219437;23;20008;-65
2021/12/22 04:54:42;;;;;;;49.25;21.42;;;;;;;-4.32;100.00;102525.06;6219549;23;20100;-66
2021/12/22 04:57:08;;;;;;;47.42;21.30;;;;;;;-4.35;100.00;102520.66;6218669;23;20012;-64
2021/12/22 04:59:33;;;;;;;44.83;21.90;;;;;;;-4.29;100.00;102528.75;6219227;23;20004;-63
2021/12/22 05:01:58;;;;;;;47.72;21.48;;;;;;;-4.40;100.00;102503.19;6219207;23;20420;-64
2021/12/22 05:04:23;;;;;;;44.70;21.23;;;;;;;-4.34;100.00;102512.22;6219109;23;20092;-64
2021/12/22 05:06:49;;;;;;;46.92;21.27;;;;;;;-4.32;100.00;102522.53;6218929;23;20279;-66
2021/12/22 05:09:14;;;;;;;50.58;21.88;;;;;;;-4.29;100.00;102512.53;6219158;23;20016;-64
2021/12/22 05:11:40;;;;;;;48.50;20.67;;;;;;;-4.30;100.00;102493.75;6219059;23;20353;-65
2021/12/22 05:14:08;;;;;;;42.90;21.48;;;;;;;-4.25;100.00;102491.53;6219755;23;20032;-66
2021/12/22 05:16:33;;;;;;;51.60;21.35;;;;;;;-4.22;100.00;102502.00;6219248;23;20290;-66
2021/12/22 05:19:19;;;;;;;43.97;20.58;;;;;;;-4.23;100.00;102493.44;6219512;23;20009;-65
2021/12/22 05:21:45;;;;;;;39.40;19.77;;;;;;;-4.22;100.00;102500.31;6218234;23;20433;-63
2021/12/22 05:24:11;;;;;;;42.25;20.35;;;;;;;-4.19;100.00;102499.66;6219141;23;20016;-64
2021/12/22 05:26:37;;;;;;;45.70;20.48;;;;;;;-4.21;100.00;102506.31;6219614;23;20446;-65
2021/12/22 05:29:03;;;;;;;45.42;20.17;;;;;;;-4.24;100.00;102506.09;6219087;23;20009;-64
2021/12/22 05:31:28;;;;;;;44.72;20.65;;;;;;;-4.26;100.00;102507.66;6219001;23;20229;-65
2021/12/22 05:33:54;;;;;;;45.15;20.45;;;;;;;-4.23;100.00;102513.00;6219013;23;20362;-64
2021/12/22 05:36:19;;;;;;;46.33;20.35;;;;;;;-4.24;100.00;102511.22;6218676;23;20418;-64
2021/12/22 05:38:45;;;;;;;40.75;19.52;;;;;;;-4.28;100.00;102497.31;6218914;23;20004;-65
2021/12/22 05:41:11;;;;;;;45.75;20.38;;;;;;;-4.23;100.00;102498.53;6218669;23;20452;-63
2021/12/22 05:43:36;;;;;;;42.72;19.92;;;;;;;-4.26;100.00;102492.31;6219674;23;20019;-64
2021/12/22 05:46:02;;;;;;;40.53;19.33;;;;;;;-4.28;100.00;102484.53;6219170;23;20013;-64
2021/12/22 05:48:28;;;;;;;39.80;19.80;;;;;;;-4.24;100.00;102489.09;6217968;23;20015;-63
2021/12/22 05:50:57;;;;;;;43.75;20.10;;;;;;;-4.25;100.00;102489.88;6218821;23;20009;-65
2021/12/22 05:53:23;;;;;;;50.10;20.95;;;;;;;-4.28;100.00;102489.66;6218701;23;20071;-64
2021/12/22 05:55:48;;;;;;;43.22;21.10;;;;;;;-4.28;100.00;102488.75;6218632;23;20013;-65
2021/12/22 05:58:14;;;;;;;42.47;19.20;;;;;;;-4.32;100.00;102479.09;6218952;23;20005;-62
2021/12/22 06:00:39;;;;;;;41.67;19.60;;;;;;;-4.36;100.00;102475.44;6219205;23;20012;-64
2021/12/22 06:03:05;;;;;;;44.40;20.23;;;;;;;-4.37;100.00;102475.31;6215402;23;20022;-62
2021/12/22 06:05:30;;;;;;;38.80;18.98;;;;;;;-4.30;100.00;102480.97;6217771;23;20005;-63
2021/12/22 06:07:55;;;;;;;41.47;19.13;;;;;;;-4.32;100.00;102477.41;6218192;23;20013;-62
2021/12/22 06:10:20;;;;;;;40.13;18.80;;;;;;;-4.32;100.00;102477.41;6218263;23;20023;-62
2021/12/22 06:12:46;;;;;;;36.45;18.40;;;;;;;-4.33;100.00;102482.44;6218314;23;20134;-65
2021/12/22 06:15:11;;;;;;;36.25;18.48;;;;;;;-4.32;100.00;102486.75;6219123;23;20012;-62
2021/12/22 06:17:37;;;;;;;43.22;19.45;;;;;;;-4.35;100.00;102481.44;6218219;23;20000;-63
2021/12/22 06:20:03;;;;;;;38.75;18.30;;;;;;;-4.37;100.00;102488.09;6218254;23;20008;-64
2021/12/22 06:22:31;;;;;;;38.33;18.13;;;;;;;-4.37;100.00;102485.53;6218571;23;20080;-63
2021/12/22 06:24:56;;;;;;;38.30;18.60;;;;;;;-4.42;100.00;102494.53;6218344;23;20008;-62
2021/12/22 06:27:22;;;;;;;38.88;18.90;;;;;;;-4.42;100.00;102497.97;6218247;23;20001;-66
2021/12/22 06:29:47;;;;;;;37.50;17.75;;;;;;;-4.48;100.00;102489.84;6218753;23;20115;-65
2021/12/22 06:32:12;;;;;;;37.75;18.95;;;;;;;-4.51;100.00;102484.53;6217950;23;20020;-64
2021/12/22 06:34:38;;;;;;;41.88;19.10;;;;;;;-4.47;100.00;102488.19;6216079;23;20051;-64
2021/12/22 06:37:03;;;;;;;33.95;17.40;;;;;;;-4.63;100.00;102460.63;6218055;23;20005;-63
2021/12/22 06:39:29;;;;;;;41.53;19.30;;;;;;;-4.52;100.00;102489.53;6217465;23;20019;-63
2021/12/22 06:41:54;;;;;;;36.30;17.63;;;;;;;-4.57;100.00;102492.63;6218138;23;20012;-64
2021/12/22 06:44:19;;;;;;;35.40;17.92;;;;;;;-4.57;100.00;102489.19;6217904;23;20015;-64
2021/12/22 06:46:45;;;;;;;38.90;18.25;;;;;;;-4.58;100.00;102483.19;6218125;23;20306;-65
2021/12/22 06:49:11;;;;;;;33.50;17.58;;;;;;;-4.57;100.00;102494.31;6217691;23;20014;-66
2021/12/22 06:51:36;;;;;;;36.78;18.23;;;;;;;-4.57;100.00;102495.19;6217939;23;20001;-62
2021/12/22 06:54:02;;;;;;;39.38;17.77;;;;;;;-4.60;100.00;102501.72;6217616;23;20012;-63
2021/12/22 06:56:28;;;;;;;34.17;17.40;;;;;;;-4.65;100.00;102492.84;6217851;23;20072;-64
2021/12/22 06:58:54;;;;;;;34.28;17.00;;;;;;;-4.65;100.00;102503.94;6216950;23;20016;-65
2021/12/22 07:01:21;;;;;;;30.95;17.60;;;;;;;-4.71;100.00;102497.50;6218057;23;20040;-63
2021/12/22 07:03:46;;;;;;;35.78;17.10;;;;;;;-4.68;100.00;102507.97;6218087;23;20007;-64
2021/12/22 07:06:12;;;;;;;39.42;17.05;;;;;;;-4.68;100.00;102508.84;6216818;23;20009;-63
2021/12/22 07:08:37;;;;;;;32.92;17.08;;;;;;;-4.73;100.00;102506.72;6217354;23;20005;-63
2021/12/22 07:11:03;;;;;;;35.47;17.63;;;;;;;-4.69;100.00;102506.19;6217397;23;20369;-62
2021/12/22 07:13:30;;;;;;;37.60;17.85;;;;;;;-4.74;100.00;102495.59;6218090;23;20067;-64
2021/12/22 07:15:55;;;;;;;38.65;17.27;;;;;;;-4.76;100.00;102491.16;6217734;23;20004;-63
2021/12/22 07:18:20;;;;;;;33.63;17.15;;;;;;;-4.80;100.00;102487.47;6217576;23;20004;-63
2021/12/22 07:20:46;;;;;;;37.85;17.50;;;;;;;-4.78;100.00;102493.59;6217501;23;20383;-63
2021/12/22 07:23:11;;;;;;;32.88;16.35;;;;;;;-4.82;100.00;102483.91;6217644;23;20397;-66
2021/12/22 07:25:37;;;;;;;38.33;17.10;;;;;;;-4.82;100.00;102481.38;6217935;23;20011;-62
2021/12/22 07:28:03;;;;;;;31.58;16.67;;;;;;;-4.79;100.00;102486.72;6217623;23;20442;-64
2021/12/22 07:30:28;;;;;;;31.55;17.60;;;;;;;-4.76;100.00;102486.06;6217859;23;20083;-64
2021/12/22 07:32:53;;;;;;;37.70;18.10;;;;;;;-4.74;100.00;102503.28;6217498;23;20314;-64
2021/12/22 07:35:21;;;;;;;35.47;16.75;;;;;;;-4.68;100.00;102500.28;6217987;23;20287;-65
2021/12/22 07:37:56;;;;;;;36.92;17.20;;;;;;;-4.66;100.00;102494.50;6217591;23;20004;-65
2021/12/22 07:40:21;;;;;;;31.42;16.15;;;;;;;-4.62;100.00;102493.94;6217722;23;20035;-65
2021/12/22 07:42:46;;;;;;;35.33;16.92;;;;;;;-4.60;100.00;102494.06;6217353;23;20001;-64
2021/12/22 07:45:12;;;;;;;30.73;16.02;;;;;;;-4.52;100.00;102487.00;6217267;23;20023;-64
2021/12/22 07:47:38;;;;;;;38.63;17.50;;;;;;;-4.49;100.00;102490.63;6217940;23;20505;-64
2021/12/22 07:50:05;;;;;;;27.30;15.73;;;;;;;-4.46;100.00;102495.06;6217522;23;20004;-60
2021/12/22 07:52:30;;;;;;;34.60;16.35;;;;;;;-4.51;100.00;102473.44;6217293;23;20005;-64
2021/12/22 07:54:57;;;;;;;36.15;17.02;;;;;;;-4.42;100.00;102479.22;6218042;23;20275;-63
2021/12/22 07:57:22;;;;;;;36.80;16.98;;;;;;;-4.37;100.00;102483.00;6217642;23;20021;-65
2021/12/22 07:59:48;;;;;;;33.25;17.02;;;;;;;-4.30;100.00;102490.31;6217676;23;20009;-63
2021/12/22 08:02:13;;;;;;;31.52;16.88;;;;;;;-4.28;100.00;102483.66;6217725;23;20005;-64
2021/12/22 08:04:39;;;;;;;30.98;17.35;;;;;;;-4.31;100.00;102478.31;6217594;23;20009;-64
2021/12/22 08:07:05;;;;;;;33.45;16.25;;;;;;;-4.31;100.00;102475.75;6217482;23;20107;-63
2021/12/22 08:09:30;;;;;;;33.95;16.42;;;;;;;-4.24;100.00;102486.53;6217242;23;20044;-63
2021/12/22 08:12:04;;;;;;;38.28;17.40;;;;;;;-4.22;100.00;102484.09;6216578;23;20009;-65
2021/12/22 08:14:29;;;;;;;33.92;16.38;;;;;;;-4.15;100.00;102483.75;6217591;23;20016;-63
2021/12/22 08:16:54;;;;;;;34.15;17.02;;;;;;;-4.08;100.00;102487.63;6217361;23;20339;-65
2021/12/22 08:19:20;;;;;;;37.80;16.67;;;;;;;-4.03;100.00;102489.75;6217440;23;20074;-64
2021/12/22 08:21:45;;;;;;;32.22;16.77;;;;;;;-3.96;100.00;102489.41;6217165;23;20023;-65
2021/12/22 08:24:11;;;;;;;31.38;16.48;;;;;;;-3.92;100.00;102472.63;6217227;23;20036;-64
2021/12/22 08:26:36;;;;;;;32.15;16.75;;;;;;;-3.84;100.00;102481.72;6217615;23;20058;-64
2021/12/22 08:29:02;;;;;;;34.80;16.85;;;;;;;-3.75;100.00;102484.91;6217513;23;20044;-65
2021/12/22 08:31:27;;;;;;;34.45;16.85;;;;;;;-3.75;100.00;102479.81;6217155;23;20001;-65
2021/12/22 08:33:54;;;;;;;34.97;17.48;;;;;;;-3.69;100.00;102476.78;6217498;23;20005;-63
2021/12/22 08:39:07;;;;;;;29.73;15.75;;;;;;;-3.61;100.00;102489.31;6217263;23;20074;-63
2021/12/22 08:41:35;;;;;;;33.58;17.45;;;;;;;-3.62;100.00;102478.97;6217539;23;20009;-64
2021/12/22 08:44:06;;;;;;;33.30;16.30;;;;;;;-3.53;100.00;102487.31;6217060;23;20001;-64
2021/12/22 08:46:33;;;;;;;40.72;17.13;;;;;;;-3.49;100.00;102475.63;6217411;23;20023;-65
2021/12/22 08:49:00;;;;;;;29.10;16.20;;;;;;;-3.44;100.00;102476.81;6214749;23;20086;-65
2021/12/22 08:51:25;;;;;;;29.55;15.50;;;;;;;-3.40;100.00;102482.25;6216402;23;20004;-64
2021/12/22 08:53:54;;;;;;;30.67;15.55;;;;;;;-3.39;100.00;102483.16;6217166;23;20008;-63
2021/12/22 08:56:20;;;;;;;29.02;16.15;;;;;;;-3.33;100.00;102487.03;6217364;23;20020;-66
2021/12/22 08:58:46;;;;;;;28.83;15.98;;;;;;;-3.30;100.00;102491.47;6216878;23;20394;-63
2021/12/22 09:01:11;;;;;;;31.15;16.02;;;;;;;-3.27;100.00;102491.66;6217037;23;20004;-66
2021/12/22 09:03:36;;;;;;;29.85;15.75;;;;;;;-3.24;100.00;102482.53;6216312;23;20356;-63
2021/12/22 09:06:02;;;;;;;33.67;15.82;;;;;;;-3.24;100.00;102482.53;6217342;23;20284;-64
2021/12/22 09:08:27;;;;;;;30.40;16.15;;;;;;;-3.15;100.00;102479.72;6217305;23;20008;-63
2021/12/22 09:10:53;;;;;;;30.85;16.85;;;;;;;-3.08;100.00;102484.44;6217260;23;20005;-63
2021/12/22 09:13:20;;;;;;;31.70;16.40;;;;;;;-3.01;100.00;102484.09;6217085;23;20005;-64
2021/12/22 09:15:46;;;;;;;32.95;17.10;;;;;;;-2.99;100.00;102481.63;6216924;23;20009;-65
2021/12/22 09:18:11;;;;;;;36.05;16.70;;;;;;;-2.99;100.00;102466.28;6216655;23;20008;-65
2021/12/22 09:20:37;;;;;;;30.60;16.58;;;;;;;-2.90;100.00;102470.31;6217344;23;20139;-66
2021/12/22 09:23:02;;;;;;;28.70;16.95;;;;;;;-2.84;100.00;102469.84;6218655;23;20302;-66
2021/12/22 09:25:27;;;;;;;32.28;16.27;;;;;;;-2.82;100.00;102469.16;6219071;23;20004;-63
2021/12/22 09:27:53;;;;;;;30.85;16.67;;;;;;;-2.74;100.00;102474.78;6219140;23;20107;-66
2021/12/22 09:30:18;;;;;;;29.55;15.88;;;;;;;-2.66;100.00;102475.31;6218565;23;20008;-65
2021/12/22 09:32:44;;;;;;;29.13;15.55;;;;;;;-2.61;100.00;102467.16;6218590;23;20019;-64
2021/12/22 09:35:09;;;;;;;30.75;16.45;;;;;;;-2.53;100.00;102472.75;6218347;23;20078;-65
2021/12/22 09:37:34;;;;;;;27.08;15.32;;;;;;;-2.43;100.00;102469.13;6218776;23;20416;-63
2021/12/22 09:39:59;;;;;;;29.13;16.33;;;;;;;-2.36;100.00;102459.34;6218741;23;19997;-65
2021/12/22 09:42:25;;;;;;;27.73;15.38;;;;;;;-2.31;100.00;102455.41;6218538;23;20012;-64
2021/12/22 09:44:50;;;;;;;29.65;15.50;;;;;;;-2.21;100.00;102457.78;6218008;23;20012;-63
2021/12/22 09:47:25;;;;;;;31.10;16.15;;;;;;;-2.06;100.00;102460.41;6218579;23;20357;-64
2021/12/22 09:50:12;;;;;;;28.05;15.02;;;;;;;-2.01;100.00;102456.47;6218426;23;20009;-63
2021/12/22 09:52:38;;;;;;;29.52;15.68;;;;;;;-1.95;100.00;102458.56;6218637;23;20063;-64
2021/12/22 09:55:06;;;;;;;31.15;14.98;;;;;;;-1.90;100.00;102450.31;6217987;23;20005;-64
2021/12/22 09:57:32;;;;;;;28.00;15.27;;;;;;;-1.79;100.00;102456.16;6218695;23;20058;-63
2021/12/22 09:59:59;;;;;;;27.67;15.50;;;;;;;-1.76;100.00;102459.81;6218573;23;20005;-64
2021/12/22 10:02:29;;;;;;;25.98;14.63;;;;;;;-1.67;99.66;102463.72;6218520;23;20008;-63
2021/12/22 10:04:56;;;;;;;27.58;14.73;;;;;;;-1.61;99.42;102459.84;6218572;23;20302;-63
2021/12/22 10:07:26;;;;;;;27.55;14.65;;;;;;;-1.56;99.67;102457.56;6218612;23;20008;-64
2021/12/22 10:09:53;;;;;;;26.88;14.57;;;;;;;-1.48;98.97;102451.22;6218295;23;20004;-63
2021/12/22 10:12:25;;;;;;;25.95;14.48;;;;;;;-1.45;98.67;102444.59;6218665;23;20019;-63
2021/12/22 10:15:03;;;;;;;26.98;13.70;;;;;;;-1.37;98.24;102446.72;6218848;23;20011;-63
2021/12/22 10:17:38;;;;;;;27.63;14.65;;;;;;;-1.28;98.06;102444.72;6218227;23;20418;-63
2021/12/22 10:20:10;;;;;;;25.77;13.52;;;;;;;-1.25;97.77;102432.97;6218567;23;20143;-64
2021/12/22 10:22:39;;;;;;;23.52;13.77;;;;;;;-1.19;97.42;102435.88;6218073;23;20016;-65
2021/12/22 10:25:13;;;;;;;27.00;14.25;;;;;;;-1.12;98.41;102438.00;6218548;23;20012;-66
2021/12/22 10:27:41;;;;;;;23.20;14.00;;;;;;;-1.11;97.18;102441.47;6218282;23;20077;-63
2021/12/22 10:30:28;;;;;;;22.13;13.25;;;;;;;-1.07;97.29;102433.16;6218511;23;20012;-62
2021/12/22 10:33:27;;;;;;;22.90;12.90;;;;;;;-1.04;97.56;102427.31;6217756;23;20004;-64
2021/12/22 10:35:55;;;;;;;27.60;13.88;;;;;;;-1.02;97.41;102429.16;6168484;23;20008;-64
2021/12/22 10:38:24;;;;;;;36.95;15.38;;;;;;;-0.96;96.46;102438.91;6218331;23;20394;-63
2021/12/22 10:40:53;;;;;;;26.52;14.38;;;;;;;-0.92;96.33;102425.47;6218697;23;20023;-64
2021/12/22 10:43:22;;;;;;;27.20;14.88;;;;;;;-0.92;96.39;102417.75;6217914;23;20005;-65
2021/12/22 10:45:53;;;;;;;24.50;14.10;;;;;;;-0.81;96.51;102416.69;6219020;23;20023;-64
2021/12/22 10:51:09;;;;;;;24.02;13.52;;;;;;;-0.65;95.50;102411.63;6217782;23;20031;-65
2021/12/22 10:53:44;;;;;;;23.77;13.45;;;;;;;-0.60;95.40;102405.06;6218120;23;20004;-64
2021/12/22 10:56:09;;;;;;;23.58;13.68;;;;;;;-0.54;95.27;102404.53;6218294;23;20091;-60
2021/12/22 10:58:36;;;;;;;23.10;13.57;;;;;;;-0.53;95.04;102396.03;6218215;23;20032;-66
2021/12/22 11:01:12;;;;;;;23.77;12.95;;;;;;;-0.41;93.97;102395.00;6218131;23;20015;-66
2021/12/22 11:03:48;;;;;;;22.33;13.40;;;;;;;-0.34;93.67;102391.06;6218272;23;20008;-65
2021/12/22 11:06:27;;;;;;;26.38;13.57;;;;;;;-0.23;92.95;102399.41;6217984;23;20143;-66
2021/12/22 11:09:01;;;;;;;22.08;12.55;;;;;;;-0.21;91.42;102396.13;6218014;23;20004;-67
2021/12/22 11:11:36;;;;;;;19.38;11.95;;;;;;;-0.19;91.52;102389.38;6218254;23;20015;-66
2021/12/22 11:14:22;;;;;;;22.73;13.07;;;;;;;-0.16;91.97;102380.91;6217799;23;20005;-65
2021/12/22 11:17:13;;;;;;;21.40;12.63;;;;;;;-0.04;91.50;102395.34;6218166;23;20005;-67
2021/12/22 11:19:54;;;;;;;23.10;13.48;;;;;;;0.07;91.77;102393.34;6218191;23;20008;-65
2021/12/22 11:22:25;;;;;;;21.20;13.10;;;;;;;0.12;90.63;102383.31;6217928;23;20019;-66